Latest Coastal Weather Observations for Mackay

IDQ60701

Issued at 5:12 pm EST Sunday 1 February 2015 (issued every 10 minutes, with the page automatically refreshed every 10 minutes)

About coastal observations | Map of coastal stations | Coastal observations for QLD | Marine services | Other Formats
Station Details ID: 033119 Name: MACKAY M.O Lat: -21.12 Lon: 149.22 Height: 30.26 m
Data from the previous 72 hours. | See also: Recent months at Mackay
Date/Time
EST
Temp

°C
Wind Pressure Rain
since 9am
mm
Weather Cloud Vis
km
Sea
Height
m
Swell
Dir
 
Speed
knots
Gust
knots
hPa Trend Height
m
Period
s
Dir
01/05:00pm 31.2 N 8 15 1004.1 - 0.0 - Mostly clear 10 - - - -
01/04:30pm 31.9 N 8 13 1003.9 - 0.0 - Mostly clear 10 - - - -
01/04:00pm 32.5 N 7 11 1004.0 - 0.0 - Mostly clear 10 - - - -
01/03:30pm 32.5 N 10 15 1004.2 - 0.0 - Mostly clear 10 - - - -
01/03:00pm 32.9 N 9 14 1004.2 F 0.0 Haze Partly cloudy 25 - - - -
01/02:30pm 32.9 NNW 10 14 1004.4 - 0.0 - Mostly clear 10 - - - -
01/02:00pm 33.1 N 9 13 1004.7 - 0.0 - Mostly clear 10 - - - -
01/01:30pm 33.0 NNW 10 14 1005.0 - 0.0 - Mostly clear 10 - - - -
01/01:00pm 33.0 N 9 14 1005.4 - 0.0 - Mostly clear 10 - - - -
01/12:30pm 33.3 N 8 13 1005.8 - 0.0 - Mostly clear 10 - - - -
01/12:00pm 33.6 N 7 11 1006.2 F 0.0 Haze Partly cloudy 20 - - - -
01/11:30am 32.8 N 7 11 1006.7 - 0.0 - Mostly clear 10 - - - -
01/11:00am 32.1 N 6 9 1007.0 - 0.0 - Mostly clear 10 - - - -
01/10:00am 30.9 N 6 9 1007.3 - 0.0 - Mostly clear 10 - - - -
01/09:30am 30.0 N 5 8 1007.4 - 0.0 - Mostly clear 10 - - - -
01/09:00am 29.6 NW 4 6 1007.6 R 0.0 Haze Mostly clear 20 - - - -
01/08:30am 28.3 NNW 5 8 1007.6 - 0.0 - Mostly clear 10 - - - -
01/08:00am 26.6 WSW 3 5 1007.4 - 0.0 - Mostly clear 10 - - - -
01/07:00am 24.6 SW 5 7 1006.7 - 0.0 - Mostly clear 10 - - - -
01/06:30am 23.6 WSW 6 8 1006.3 - 0.0 - Mostly clear 10 - - - -
01/06:00am 23.2 W 4 6 1006.0 R 0.0 Haze Mostly clear 18 - - - -
01/05:30am 22.8 SW 5 6 1005.7 - 0.0 - - - - - - -
01/05:00am 23.1 SW 6 7 1005.6 - 0.0 - - - - - - -
01/04:30am 23.3 WSW 5 6 1005.4 - 0.0 - - - - - - -
01/04:00am 23.4 WSW 5 6 1005.1 - 0.0 - - - - - - -
01/03:30am 23.5 WSW 6 7 1005.1 - 0.0 - - - - - - -
01/03:00am 23.9 WSW 6 7 1005.1 - 0.0 - - - - - - -
01/02:30am 24.0 WSW 5 6 1005.3 - 0.0 - - - - - - -
01/02:00am 24.1 WSW 5 6 1005.6 - 0.0 - - - - - - -
01/01:30am 24.2 WSW 5 6 1005.9 - 0.0 - - - - - - -
01/01:00am 24.8 W 4 5 1006.3 - 0.0 - - - - - - -
01/12:30am 25.2 WNW 5 6 1006.7 - 0.0 - - - - - - -
01/12:00am 25.2 WNW 5 6 1007.1 - 0.0 - - - - - - -
 
Date/Time
EST
Temp

°C
Wind Pressure Rain
since 9am
mm
Weather Cloud Vis
km
Sea
Height
m
Swell
Dir
 
Speed
knots
Gust
knots
hPa Trend Height
m
Period
s
Dir
31/11:30pm 25.3 WNW 4 5 1007.5 - 0.0 - - - - - - -
31/11:00pm 25.7 WNW 4 5 1007.6 - 0.0 - - - - - - -
31/10:30pm 25.9 NW 3 4 1007.8 - 0.0 - - - - - - -
31/10:00pm 26.0 N 4 5 1007.6 - 0.0 - - - - - - -
31/09:30pm 26.0 N 4 5 1007.5 - 0.0 - - - - - - -
31/09:00pm 25.7 N 3 6 1007.1 S 0.0 - - - - - - -
31/08:30pm 25.8 NNE 4 7 1006.9 - 0.0 - - - - - - -
31/08:00pm 26.1 NNE 5 8 1006.5 - 0.0 - - - - - - -
31/07:30pm 26.3 NNE 4 7 1006.3 - 0.0 - - - - - - -
31/07:00pm 26.8 NE 4 7 1006.1 - 0.0 - - - - - - -
31/06:30pm 27.6 NE 5 8 1005.8 - 0.0 - - - - - - -
31/06:00pm 28.6 NE 5 8 1005.5 S 0.0 - - - - - - -
31/05:30pm 29.2 NE 5 8 1005.3 - 0.0 - - - - - - -
31/05:00pm 29.9 NE 6 9 1005.2 - 0.0 - Mostly clear 10 - - - -
31/04:30pm 30.4 NNE 6 10 1005.1 - 0.0 - Mostly clear 10 - - - -
31/04:00pm 30.0 NE 7 11 1004.9 - 0.0 - Mostly clear 10 - - - -
31/03:30pm 30.8 NE 6 11 1005.1 - 0.0 - - - - - - -
31/03:00pm 31.0 NE 6 11 1005.4 F 0.0 Haze Partly cloudy 20 - - - -
31/02:30pm 30.2 NE 7 11 1005.9 - 0.0 - Mostly clear 10 - - - -
31/02:00pm 30.1 ENE 7 9 1006.1 - 0.0 - Mostly clear 10 - - - -
31/01:30pm 29.7 E 6 9 1006.3 - 0.0 - Mostly clear 10 - - - -
31/01:00pm 29.7 E 6 9 1006.5 - 0.0 - Mostly clear 10 - - - -
31/12:30pm 29.7 E 6 10 1006.7 - 0.0 - Mostly clear 10 - - - -
31/12:00pm 29.4 ESE 6 8 1007.1 F 0.0 Fine Mostly clear 25 - - - -
31/11:30am 29.2 E 6 10 1007.6 - 0.0 - Mostly clear 10 - - - -
31/11:00am 29.0 ESE 5 8 1008.2 - 0.0 - Mostly clear 10 - - - -
31/10:30am 29.0 E 5 6 1008.6 - 0.0 - Mostly clear 10 - - - -
31/10:00am 29.1 SE 4 8 1008.6 - 0.0 - Partly cloudy 10 - - - -
31/09:30am 28.9 SE 4 7 1008.4 - 0.0 - Partly cloudy 10 - - - -
31/09:00am 28.3 ESE 5 7 1008.4 R 0.0 Haze Partly cloudy 20 - - - -
31/08:36am 27.8 SSW 3 7 1008.4 - 0.0 - Partly cloudy 10 - - - -
31/08:30am 27.5 SW 3 6 1008.4 - 0.0 - Partly cloudy - - - - -
31/08:00am 26.6 SW 5 7 1008.2 - 0.0 - Mostly clear 10 - - - -
31/07:30am 25.2 SW 5 7 1008.1 - 0.0 - Mostly clear 10 - - - -
31/07:00am 23.7 SW 7 8 1008.0 - 0.0 - Partly cloudy 10 - - - -
31/06:30am 23.1 SW 6 8 1007.4 - 0.0 - Mostly clear 10 - - - -
31/06:00am 22.8 SW 6 7 1007.0 S 0.0 Fine Partly cloudy 25 - - - -
31/05:30am 22.9 SW 7 8 1006.6 - 0.0 - - - - - - -
31/05:00am 23.0 SW 6 7 1006.3 - 0.0 - - - - - - -
31/04:30am 23.2 SW 6 8 1006.3 - 0.0 - - - - - - -
31/04:00am 23.3 SW 6 7 1006.2 - 0.0 - - - - - - -
31/03:30am 24.0 SW 2 5 1006.1 - 0.0 - - - - - - -
31/03:00am 24.4 WSW 4 6 1006.1 - 0.0 - - - - - - -
31/02:30am 25.0 SSW 3 4 1006.2 - 0.0 - Partly cloudy - - - - -
31/02:00am 26.5 E 5 8 1006.3 - 0.0 - Partly cloudy - - - - -
31/01:30am 26.7 E 5 8 1006.5 - 0.0 - Partly cloudy - - - - -
31/01:00am 26.5 E 5 7 1006.8 - 0.0 - Partly cloudy - - - - -
31/12:30am 26.8 E 6 10 1006.9 - 0.0 - Partly cloudy - - - - -
31/12:00am 26.9 E 5 8 1007.4 - 0.0 - Mostly clear - - - - -
 
Date/Time
EST
Temp

°C
Wind Pressure Rain
since 9am
mm
Weather Cloud Vis
km
Sea
Height
m
Swell
Dir
 
Speed
knots
Gust
knots
hPa Trend Height
m
Period
s
Dir
30/11:30pm 26.7 E 6 9 1007.6 - 0.0 - - - - - - -
30/11:00pm 27.1 E 6 9 1007.9 - 0.0 - Partly cloudy - - - - -
30/10:30pm 27.2 E 6 11 1008.0 - 0.0 - Partly cloudy - - - - -
30/10:00pm 27.4 E 6 9 1008.0 - 0.0 - Partly cloudy - - - - -
30/09:30pm 27.3 E 5 9 1007.8 - 0.0 - Partly cloudy - - - - -
30/09:00pm 27.4 E 6 11 1007.3 S 0.0 - Mostly clear - - - - -
30/08:30pm 27.4 E 7 12 1007.1 - 0.0 - - - - - - -
30/08:00pm 27.4 E 9 12 1006.8 - 0.0 - - - - - - -
30/07:30pm 27.6 ESE 7 12 1006.6 - 0.0 - Partly cloudy - - - - -
30/07:00pm 27.7 ESE 7 12 1006.4 - 0.0 - Partly cloudy - - - - -
30/06:30pm 27.4 E 7 12 1006.0 - 0.0 - - - - - - -
30/06:00pm 27.7 ESE 7 14 1005.7 R 0.0 - - - - - - -
30/05:30pm 27.9 ESE 8 13 1005.3 - 0.0 - - - - - - -
30/05:00pm 28.0 ESE 8 13 1005.0 - 0.0 - Mostly clear 10 - - - -
30/04:30pm 28.9 ESE 7 11 1004.8 - 0.0 - Mostly clear 10 - - - -
30/04:00pm 28.4 SE 9 13 1005.0 - 0.0 - Mostly clear 10 - - - -
30/03:30pm 28.4 SE 7 11 1005.3 - 0.0 - Mostly clear 10 - - - -
30/03:00pm 28.3 ESE 7 11 1005.5 F 0.0 Fine Partly cloudy 30 - - - -
30/02:30pm 28.2 E 7 12 1005.5 - 0.0 - Mostly clear 10 - - - -
30/02:00pm 28.4 ESE 8 12 1005.7 - 0.0 - Mostly clear 10 - - - -
30/01:30pm 28.2 ESE 9 16 1006.0 - 0.0 - Mostly clear 10 - - - -
30/01:00pm 28.7 ESE 9 15 1006.4 - 0.0 - Mostly clear 10 - - - -
30/12:30pm 28.1 ESE 7 11 1006.8 - 0.0 - Mostly clear 10 - - - -
30/12:00pm 27.8 ESE 9 13 1007.2 R 0.0 Fine Partly cloudy 30 - - - -
30/11:30am 28.0 ESE 9 14 1007.7 - 0.0 - Mostly clear 10 - - - -
30/11:00am 28.6 SE 7 11 1007.9 - 0.0 - Mostly clear 10 - - - -
30/10:30am 28.1 SSE 9 12 1007.8 - 0.0 - Mostly clear 10 - - - -
30/10:00am 27.6 SE 6 10 1008.0 - 0.0 - Mostly clear 10 - - - -
30/09:30am 27.5 ESE 7 11 1008.1 - 0.0 - Mostly clear 10 - - - -
30/09:00am 26.4 SSE 8 13 1007.8 R 2.2 Distant precip. Mostly cloudy 20 - - - -
30/08:30am 27.0 SSE 8 13 1007.6 - 2.2 - Mostly clear 10 - - - -
30/08:00am 24.9 SE 10 16 1007.5 - 2.2 - Mostly clear 10 - - - -
30/07:30am 24.9 SE 10 17 1007.1 - 2.2 - Partly cloudy 10 - - - -
30/07:00am 24.5 SSE 13 21 1006.8 - 1.8 - Partly cloudy 10 - - - -
30/06:30am 24.5 S 7 11 1006.5 - 1.6 - Partly cloudy 10 - - - -
30/06:13am 24.6 SSW 6 8 1006.2 - 1.4 - Partly cloudy 10 - - - -
30/06:00am 24.7 SW 5 6 1006.0 R 1.4 Distant precip. Mostly cloudy 20 - - - -
30/05:30am 26.6 ESE 6 10 1005.5 - 1.4 - Partly cloudy - - - - -
30/05:00am 26.6 ESE 5 11 1005.3 - 1.4 - Partly cloudy - - - - -
30/04:30am 26.4 ESE 7 11 1004.8 - 1.4 - Partly cloudy - - - - -
30/04:00am 26.6 ESE 7 11 1004.7 - 1.4 - Partly cloudy - - - - -
30/03:30am 26.4 ESE 7 13 1004.7 - 1.4 - Partly cloudy - - - - -
30/03:00am 26.6 ESE 7 11 1004.9 - 1.4 - Cloudy - - - - -
30/02:30am 26.6 ESE 8 12 1005.1 - 1.4 - Partly cloudy - - - - -
30/02:00am 26.2 E 10 16 1005.3 - 1.4 - Partly cloudy - - - - -
30/01:30am 25.9 ESE 8 13 1005.8 - 1.4 - Partly cloudy - - - - -
30/01:00am 26.7 E 9 13 1006.2 - 1.4 - Partly cloudy - - - - -
30/12:30am 26.2 E 8 12 1006.5 - 1.4 - Partly cloudy - - - - -
30/12:00am 27.3 ESE 6 12 1006.8 - 0.2 - Cloudy - - - - -
 
Date/Time
EST
Temp

°C
Wind Pressure Rain
since 9am
mm
Weather Cloud Vis
km
Sea
Height
m
Swell
Dir
 
Speed
knots
Gust
knots
hPa Trend Height
m
Period
s
Dir
29/11:30pm 27.1 ESE 8 13 1006.9 - 0.2 - - - - - - -
29/11:00pm 27.1 ESE 9 15 1007.1 - 0.2 - - - - - - -
29/10:30pm 27.1 ESE 9 15 1007.2 - 0.2 - - - - - - -
29/10:00pm 27.0 SE 7 11 1007.3 - 0.2 - - - - - - -
29/09:30pm 27.0 ESE 7 13 1007.2 - 0.2 - Partly cloudy - - - - -
29/09:00pm 26.9 ESE 7 12 1006.7 R 0.2 - Mostly clear - - - - -
29/08:30pm 26.7 ESE 9 13 1006.2 - 0.2 - Partly cloudy - - - - -
29/08:00pm 27.0 ESE 9 15 1005.9 - 0.2 - Partly cloudy - - - - -
29/07:30pm 27.0 ESE 9 14 1005.9 - 0.2 - Partly cloudy - - - - -
29/07:00pm 27.0 ESE 10 16 1005.6 - 0.2 - Partly cloudy - - - - -
29/06:30pm 27.2 SE 10 15 1005.1 - 0.2 - Partly cloudy - - - - -
29/06:00pm 27.2 SE 9 15 1004.7 R 0.2 - Mostly clear - - - - -
29/05:30pm 27.7 SE 9 15 1004.1 - 0.2 - Partly cloudy - - - - -

Other Formats:

Comma delimited format used in spreadsheet applications
http://www.bom.gov.au/fwo/IDQ60701/IDQ60701.94367.axf

JavaScript Object Notation format (JSON) in row-major order
http://www.bom.gov.au/fwo/IDQ60701/IDQ60701.94367.json